sensor_id;sensor_type;location;lat;lon;timestamp;pressure;altitude;pressure_sealevel;temperature;humidity
40592;BME280;26301;42.832;23.918;2023-02-28T00:00:49;93694.91;;;4.95;100.00
40592;BME280;26301;42.832;23.918;2023-02-28T00:03:15;93697.09;;;4.98;100.00
40592;BME280;26301;42.832;23.918;2023-02-28T00:05:40;93676.56;;;4.91;100.00
40592;BME280;26301;42.832;23.918;2023-02-28T00:08:07;93681.81;;;4.83;100.00
40592;BME280;26301;42.832;23.918;2023-02-28T00:10:34;93700.41;;;4.92;100.00
40592;BME280;26301;42.832;23.918;2023-02-28T00:13:04;93688.91;;;4.81;100.00
40592;BME280;26301;42.832;23.918;2023-02-28T00:15:30;93705.16;;;4.95;100.00
40592;BME280;26301;42.832;23.918;2023-02-28T00:17:56;93712.38;;;5.13;100.00
40592;BME280;26301;42.832;23.918;2023-02-28T00:20:22;93696.69;;;4.94;100.00
40592;BME280;26301;42.832;23.918;2023-02-28T00:22:50;93701.38;;;4.91;100.00
40592;BME280;26301;42.832;23.918;2023-02-28T00:25:18;93711.53;;;5.06;100.00
40592;BME280;26301;42.832;23.918;2023-02-28T00:27:45;93701.66;;;5.02;100.00
40592;BME280;26301;42.832;23.918;2023-02-28T00:30:19;93710.31;;;5.01;100.00
40592;BME280;26301;42.832;23.918;2023-02-28T00:32:45;93707.34;;;4.98;100.00
40592;BME280;26301;42.832;23.918;2023-02-28T00:35:11;93692.34;;;4.95;100.00
40592;BME280;26301;42.832;23.918;2023-02-28T00:37:37;93679.88;;;4.85;100.00
40592;BME280;26301;42.832;23.918;2023-02-28T00:40:04;93678.75;;;4.94;100.00
40592;BME280;26301;42.832;23.918;2023-02-28T00:42:31;93673.78;;;4.86;100.00
40592;BME280;26301;42.832;23.918;2023-02-28T00:44:57;93678.38;;;4.97;100.00
40592;BME280;26301;42.832;23.918;2023-02-28T00:47:23;93662.19;;;4.90;100.00
40592;BME280;26301;42.832;23.918;2023-02-28T00:49:48;93653.13;;;4.88;100.00
40592;BME280;26301;42.832;23.918;2023-02-28T00:52:14;93687.47;;;5.00;100.00
40592;BME280;26301;42.832;23.918;2023-02-28T00:54:40;93692.63;;;5.07;100.00
40592;BME280;26301;42.832;23.918;2023-02-28T00:57:05;93671.31;;;4.99;100.00
40592;BME280;26301;42.832;23.918;2023-02-28T00:59:31;93691.09;;;5.12;100.00
40592;BME280;26301;42.832;23.918;2023-02-28T01:01:56;93686.19;;;5.17;100.00
40592;BME280;26301;42.832;23.918;2023-02-28T01:04:22;93676.13;;;5.16;100.00
40592;BME280;26301;42.832;23.918;2023-02-28T01:06:47;93667.66;;;5.15;100.00
40592;BME280;26301;42.832;23.918;2023-02-28T01:09:13;93661.50;;;5.03;100.00
40592;BME280;26301;42.832;23.918;2023-02-28T01:11:39;93672.38;;;5.12;100.00
40592;BME280;26301;42.832;23.918;2023-02-28T01:14:07;93667.81;;;5.07;100.00
40592;BME280;26301;42.832;23.918;2023-02-28T01:16:33;93650.03;;;4.99;100.00
40592;BME280;26301;42.832;23.918;2023-02-28T01:18:59;93648.88;;;5.01;100.00
40592;BME280;26301;42.832;23.918;2023-02-28T01:21:25;93660.16;;;5.14;100.00
40592;BME280;26301;42.832;23.918;2023-02-28T01:23:51;93666.13;;;5.21;100.00
40592;BME280;26301;42.832;23.918;2023-02-28T01:26:18;93643.38;;;5.04;100.00
40592;BME280;26301;42.832;23.918;2023-02-28T01:28:44;93660.94;;;5.14;100.00
40592;BME280;26301;42.832;23.918;2023-02-28T01:31:11;93647.16;;;5.09;100.00
40592;BME280;26301;42.832;23.918;2023-02-28T01:33:37;93646.94;;;5.10;100.00
40592;BME280;26301;42.832;23.918;2023-02-28T01:36:15;93654.47;;;5.18;100.00
40592;BME280;26301;42.832;23.918;2023-02-28T01:38:41;93663.75;;;5.19;100.00
40592;BME280;26301;42.832;23.918;2023-02-28T01:41:07;93660.00;;;5.22;100.00
40592;BME280;26301;42.832;23.918;2023-02-28T01:46:08;93661.19;;;5.26;100.00
40592;BME280;26301;42.832;23.918;2023-02-28T01:48:41;93661.41;;;5.24;100.00
40592;BME280;26301;42.832;23.918;2023-02-28T01:51:15;93661.19;;;5.26;100.00
40592;BME280;26301;42.832;23.918;2023-02-28T01:53:52;93659.66;;;5.32;100.00
40592;BME280;26301;42.832;23.918;2023-02-28T01:56:23;93663.81;;;5.33;100.00
40592;BME280;26301;42.832;23.918;2023-02-28T01:58:51;93665.94;;;5.29;100.00
40592;BME280;26301;42.832;23.918;2023-02-28T02:01:18;93659.47;;;5.26;100.00
40592;BME280;26301;42.832;23.918;2023-02-28T02:03:52;93657.84;;;5.25;100.00
40592;BME280;26301;42.832;23.918;2023-02-28T02:06:22;93652.72;;;5.19;100.00
40592;BME280;26301;42.832;23.918;2023-02-28T02:08:48;93665.53;;;5.25;100.00
40592;BME280;26301;42.832;23.918;2023-02-28T02:11:17;93670.88;;;5.24;100.00
40592;BME280;26301;42.832;23.918;2023-02-28T02:13:49;93670.63;;;5.19;100.00
40592;BME280;26301;42.832;23.918;2023-02-28T02:33:59;93679.44;;;5.10;100.00
40592;BME280;26301;42.832;23.918;2023-02-28T02:36:32;93680.00;;;5.05;100.00
40592;BME280;26301;42.832;23.918;2023-02-28T02:39:17;93682.38;;;5.07;100.00
40592;BME280;26301;42.832;23.918;2023-02-28T02:41:50;93668.56;;;5.01;100.00
40592;BME280;26301;42.832;23.918;2023-02-28T02:47:29;93684.00;;;5.14;100.00
40592;BME280;26301;42.832;23.918;2023-02-28T02:49:58;93683.63;;;5.17;100.00
40592;BME280;26301;42.832;23.918;2023-02-28T02:52:37;93678.66;;;5.09;100.00
40592;BME280;26301;42.832;23.918;2023-02-28T02:55:06;93693.66;;;5.12;100.00
40592;BME280;26301;42.832;23.918;2023-02-28T02:57:38;93703.13;;;5.18;100.00
40592;BME280;26301;42.832;23.918;2023-02-28T03:00:06;93706.28;;;5.20;100.00
40592;BME280;26301;42.832;23.918;2023-02-28T03:02:36;93700.44;;;5.26;100.00
40592;BME280;26301;42.832;23.918;2023-02-28T03:05:08;93695.22;;;5.13;100.00
40592;BME280;26301;42.832;23.918;2023-02-28T03:07:38;93706.91;;;5.22;100.00
40592;BME280;26301;42.832;23.918;2023-02-28T03:10:37;93710.84;;;5.25;100.00
40592;BME280;26301;42.832;23.918;2023-02-28T03:24:30;93717.94;;;5.23;100.00
40592;BME280;26301;42.832;23.918;2023-02-28T03:27:06;93712.63;;;5.24;100.00
40592;BME280;26301;42.832;23.918;2023-02-28T03:32:04;93700.72;;;5.10;100.00
40592;BME280;26301;42.832;23.918;2023-02-28T03:34:38;93718.91;;;5.22;100.00
40592;BME280;26301;42.832;23.918;2023-02-28T03:37:16;93713.78;;;5.22;100.00
40592;BME280;26301;42.832;23.918;2023-02-28T03:39:50;93702.72;;;5.15;100.00
40592;BME280;26301;42.832;23.918;2023-02-28T03:42:22;93692.44;;;5.08;100.00
40592;BME280;26301;42.832;23.918;2023-02-28T03:47:33;93718.75;;;5.23;100.00
40592;BME280;26301;42.832;23.918;2023-02-28T03:50:05;93714.78;;;5.21;100.00
40592;BME280;26301;42.832;23.918;2023-02-28T03:52:34;93703.88;;;5.12;100.00
40592;BME280;26301;42.832;23.918;2023-02-28T03:55:05;93719.91;;;5.21;100.00
40592;BME280;26301;42.832;23.918;2023-02-28T03:57:58;93727.63;;;5.27;100.00
40592;BME280;26301;42.832;23.918;2023-02-28T04:00:51;93718.00;;;5.30;100.00
40592;BME280;26301;42.832;23.918;2023-02-28T04:03:18;93726.19;;;5.18;100.00
40592;BME280;26301;42.832;23.918;2023-02-28T04:06:01;93733.13;;;5.24;100.00
40592;BME280;26301;42.832;23.918;2023-02-28T04:08:27;93709.16;;;5.04;100.00
40592;BME280;26301;42.832;23.918;2023-02-28T04:13:42;93732.09;;;4.91;100.00
40592;BME280;26301;42.832;23.918;2023-02-28T04:16:09;93734.22;;;4.87;100.00
40592;BME280;26301;42.832;23.918;2023-02-28T04:18:41;93738.22;;;4.68;100.00
40592;BME280;26301;42.832;23.918;2023-02-28T04:21:08;93731.63;;;4.59;100.00
40592;BME280;26301;42.832;23.918;2023-02-28T04:23:35;93751.69;;;4.77;100.00
40592;BME280;26301;42.832;23.918;2023-02-28T04:26:01;93756.38;;;4.73;100.00
40592;BME280;26301;42.832;23.918;2023-02-28T04:28:26;93745.16;;;4.74;100.00
40592;BME280;26301;42.832;23.918;2023-02-28T04:31:00;93754.66;;;4.80;100.00
40592;BME280;26301;42.832;23.918;2023-02-28T04:33:26;93757.84;;;4.82;100.00
40592;BME280;26301;42.832;23.918;2023-02-28T04:36:06;93754.28;;;4.84;100.00
40592;BME280;26301;42.832;23.918;2023-02-28T04:38:35;93753.91;;;4.87;100.00
40592;BME280;26301;42.832;23.918;2023-02-28T04:41:01;93749.59;;;4.87;100.00
40592;BME280;26301;42.832;23.918;2023-02-28T04:43:30;93757.88;;;4.89;100.00
40592;BME280;26301;42.832;23.918;2023-02-28T04:45:57;93755.31;;;4.89;100.00
40592;BME280;26301;42.832;23.918;2023-02-28T04:48:24;93738.34;;;4.81;100.00
40592;BME280;26301;42.832;23.918;2023-02-28T04:50:50;93751.59;;;4.92;100.00
40592;BME280;26301;42.832;23.918;2023-02-28T04:53:16;93755.72;;;4.93;100.00
40592;BME280;26301;42.832;23.918;2023-02-28T04:55:41;93757.56;;;4.99;100.00
40592;BME280;26301;42.832;23.918;2023-02-28T04:58:07;93756.16;;;4.96;100.00
40592;BME280;26301;42.832;23.918;2023-02-28T05:00:32;93758.78;;;5.03;100.00
40592;BME280;26301;42.832;23.918;2023-02-28T05:02:58;93752.44;;;4.99;100.00
40592;BME280;26301;42.832;23.918;2023-02-28T05:05:24;93761.16;;;5.04;100.00
40592;BME280;26301;42.832;23.918;2023-02-28T05:07:49;93761.75;;;5.07;100.00
40592;BME280;26301;42.832;23.918;2023-02-28T05:10:15;93758.41;;;5.06;100.00
40592;BME280;26301;42.832;23.918;2023-02-28T05:12:41;93747.69;;;4.96;100.00
40592;BME280;26301;42.832;23.918;2023-02-28T05:15:09;93774.19;;;5.10;100.00
40592;BME280;26301;42.832;23.918;2023-02-28T05:17:37;93769.25;;;5.08;100.00
40592;BME280;26301;42.832;23.918;2023-02-28T05:20:03;93774.00;;;5.11;100.00
40592;BME280;26301;42.832;23.918;2023-02-28T05:22:30;93779.72;;;5.13;100.00
40592;BME280;26301;42.832;23.918;2023-02-28T05:24:55;93772.41;;;5.10;100.00
40592;BME280;26301;42.832;23.918;2023-02-28T05:27:21;93761.94;;;5.05;100.00
40592;BME280;26301;42.832;23.918;2023-02-28T05:29:47;93773.44;;;5.16;100.00
40592;BME280;26301;42.832;23.918;2023-02-28T05:32:12;93761.75;;;5.07;100.00
40592;BME280;26301;42.832;23.918;2023-02-28T05:34:39;93783.94;;;5.21;100.00
40592;BME280;26301;42.832;23.918;2023-02-28T05:37:06;93772.25;;;5.12;100.00
40592;BME280;26301;42.832;23.918;2023-02-28T05:39:32;93797.53;;;5.21;100.00
40592;BME280;26301;42.832;23.918;2023-02-28T05:41:58;93802.28;;;5.24;100.00
40592;BME280;26301;42.832;23.918;2023-02-28T05:44:24;93794.97;;;5.21;100.00
40592;BME280;26301;42.832;23.918;2023-02-28T05:46:50;93783.31;;;5.19;100.00
40592;BME280;26301;42.832;23.918;2023-02-28T05:49:15;93796.94;;;5.26;100.00
40592;BME280;26301;42.832;23.918;2023-02-28T05:51:41;93784.72;;;5.21;100.00
40592;BME280;26301;42.832;23.918;2023-02-28T05:54:07;93801.13;;;5.27;100.00
40592;BME280;26301;42.832;23.918;2023-02-28T05:56:32;93780.50;;;5.14;100.00
40592;BME280;26301;42.832;23.918;2023-02-28T05:59:01;93794.75;;;5.23;100.00
40592;BME280;26301;42.832;23.918;2023-02-28T06:01:36;93793.44;;;5.27;100.00
40592;BME280;26301;42.832;23.918;2023-02-28T06:04:03;93786.53;;;5.27;100.00
40592;BME280;26301;42.832;23.918;2023-02-28T06:06:30;93798.41;;;5.35;100.00
40592;BME280;26301;42.832;23.918;2023-02-28T06:08:56;93785.56;;;5.28;100.00
40592;BME280;26301;42.832;23.918;2023-02-28T06:11:22;93794.31;;;5.41;100.00
40592;BME280;26301;42.832;23.918;2023-02-28T06:13:54;93785.78;;;5.34;100.00
40592;BME280;26301;42.832;23.918;2023-02-28T06:16:20;93759.91;;;5.22;100.00
40592;BME280;26301;42.832;23.918;2023-02-28T06:18:46;93796.88;;;5.41;100.00
40592;BME280;26301;42.832;23.918;2023-02-28T06:21:12;93796.06;;;5.40;100.00
40592;BME280;26301;42.832;23.918;2023-02-28T06:23:38;93800.81;;;5.43;100.00
40592;BME280;26301;42.832;23.918;2023-02-28T06:26:04;93793.09;;;5.37;100.00
40592;BME280;26301;42.832;23.918;2023-02-28T06:28:31;93806.97;;;5.49;100.00
40592;BME280;26301;42.832;23.918;2023-02-28T06:30:57;93803.38;;;5.43;100.00
40592;BME280;26301;42.832;23.918;2023-02-28T06:33:22;93815.84;;;5.53;100.00
40592;BME280;26301;42.832;23.918;2023-02-28T06:35:51;93823.63;;;5.60;100.00
40592;BME280;26301;42.832;23.918;2023-02-28T06:38:18;93816.50;;;5.62;100.00
40592;BME280;26301;42.832;23.918;2023-02-28T06:40:44;93823.00;;;5.58;100.00
40592;BME280;26301;42.832;23.918;2023-02-28T06:43:10;93803.72;;;5.34;100.00
40592;BME280;26301;42.832;23.918;2023-02-28T06:45:43;93827.59;;;5.41;100.00
40592;BME280;26301;42.832;23.918;2023-02-28T06:48:09;93821.81;;;5.32;100.00
40592;BME280;26301;42.832;23.918;2023-02-28T06:50:35;93816.25;;;5.22;100.00
40592;BME280;26301;42.832;23.918;2023-02-28T06:53:01;93810.13;;;5.23;100.00
40592;BME280;26301;42.832;23.918;2023-02-28T06:55:26;93833.50;;;5.41;100.00
40592;BME280;26301;42.832;23.918;2023-02-28T06:57:52;93838.22;;;5.38;100.00
40592;BME280;26301;42.832;23.918;2023-02-28T07:00:18;93839.81;;;5.39;100.00
40592;BME280;26301;42.832;23.918;2023-02-28T07:02:44;93817.03;;;5.22;100.00
40592;BME280;26301;42.832;23.918;2023-02-28T07:05:09;93828.75;;;5.38;100.00
40592;BME280;26301;42.832;23.918;2023-02-28T07:07:35;93816.78;;;5.39;100.00
40592;BME280;26301;42.832;23.918;2023-02-28T07:10:03;93827.84;;;5.46;100.00
40592;BME280;26301;42.832;23.918;2023-02-28T07:12:29;93816.03;;;5.45;100.00
40592;BME280;26301;42.832;23.918;2023-02-28T07:14:55;93814.41;;;5.44;100.00
40592;BME280;26301;42.832;23.918;2023-02-28T07:17:21;93813.09;;;5.48;100.00
40592;BME280;26301;42.832;23.918;2023-02-28T07:19:46;93813.91;;;5.55;100.00
40592;BME280;26301;42.832;23.918;2023-02-28T07:22:12;93812.16;;;5.62;100.00
40592;BME280;26301;42.832;23.918;2023-02-28T07:24:38;93811.63;;;5.67;100.00
40592;BME280;26301;42.832;23.918;2023-02-28T07:27:03;93807.28;;;5.67;100.00
40592;BME280;26301;42.832;23.918;2023-02-28T07:29:29;93801.38;;;5.67;100.00
40592;BME280;26301;42.832;23.918;2023-02-28T07:31:55;93807.69;;;5.71;100.00
40592;BME280;26301;42.832;23.918;2023-02-28T07:34:22;93820.91;;;5.74;100.00
40592;BME280;26301;42.832;23.918;2023-02-28T07:36:48;93817.78;;;5.72;100.00
40592;BME280;26301;42.832;23.918;2023-02-28T07:39:13;93827.31;;;5.85;100.00
40592;BME280;26301;42.832;23.918;2023-02-28T07:41:39;93819.00;;;5.83;100.00
40592;BME280;26301;42.832;23.918;2023-02-28T07:44:11;93824.94;;;5.84;100.00
40592;BME280;26301;42.832;23.918;2023-02-28T07:46:37;93831.66;;;5.85;100.00
40592;BME280;26301;42.832;23.918;2023-02-28T07:49:03;93828.59;;;5.74;100.00
40592;BME280;26301;42.832;23.918;2023-02-28T07:51:29;93798.03;;;5.66;100.00
40592;BME280;26301;42.832;23.918;2023-02-28T07:53:56;93822.53;;;5.76;100.00
40592;BME280;26301;42.832;23.918;2023-02-28T07:56:22;93820.78;;;5.83;100.00
40592;BME280;26301;42.832;23.918;2023-02-28T07:58:47;93814.63;;;5.77;100.00
40592;BME280;26301;42.832;23.918;2023-02-28T08:01:13;93833.69;;;5.68;100.00
40592;BME280;26301;42.832;23.918;2023-02-28T08:03:39;93823.41;;;5.61;100.00
40592;BME280;26301;42.832;23.918;2023-02-28T08:06:07;93809.56;;;5.56;100.00
40592;BME280;26301;42.832;23.918;2023-02-28T08:08:33;93828.03;;;5.72;100.00
40592;BME280;26301;42.832;23.918;2023-02-28T08:11:00;93793.34;;;5.42;100.00
40592;BME280;26301;42.832;23.918;2023-02-28T08:13:27;93826.81;;;5.68;100.00
40592;BME280;26301;42.832;23.918;2023-02-28T08:15:54;93836.53;;;5.80;100.00
40592;BME280;26301;42.832;23.918;2023-02-28T08:18:21;93821.34;;;5.50;100.00
40592;BME280;26301;42.832;23.918;2023-02-28T08:20:46;93827.19;;;5.65;100.00
40592;BME280;26301;42.832;23.918;2023-02-28T08:23:12;93819.06;;;5.62;100.00
40592;BME280;26301;42.832;23.918;2023-02-28T08:25:38;93782.25;;;5.35;100.00
40592;BME280;26301;42.832;23.918;2023-02-28T08:28:04;93831.38;;;5.73;100.00
40592;BME280;26301;42.832;23.918;2023-02-28T08:30:29;93808.41;;;5.58;100.00
40592;BME280;26301;42.832;23.918;2023-02-28T08:32:55;93832.53;;;5.70;100.00
40592;BME280;26301;42.832;23.918;2023-02-28T08:35:21;93831.78;;;5.77;100.00
40592;BME280;26301;42.832;23.918;2023-02-28T08:37:50;93836.53;;;5.80;100.00
40592;BME280;26301;42.832;23.918;2023-02-28T08:40:16;93817.81;;;5.79;100.00
40592;BME280;26301;42.832;23.918;2023-02-28T08:42:47;93811.84;;;5.72;100.00
40592;BME280;26301;42.832;23.918;2023-02-28T08:45:14;93803.31;;;5.65;100.00
40592;BME280;26301;42.832;23.918;2023-02-28T08:47:40;93822.75;;;5.81;100.00
40592;BME280;26301;42.832;23.918;2023-02-28T08:50:07;93817.94;;;5.71;100.00
40592;BME280;26301;42.832;23.918;2023-02-28T08:52:33;93840.88;;;5.79;100.00
40592;BME280;26301;42.832;23.918;2023-02-28T08:54:58;93837.16;;;5.82;100.00
40592;BME280;26301;42.832;23.918;2023-02-28T08:57:24;93828.66;;;5.81;100.00
40592;BME280;26301;42.832;23.918;2023-02-28T08:59:52;93830.22;;;5.76;100.00
40592;BME280;26301;42.832;23.918;2023-02-28T09:02:18;93837.91;;;5.76;100.00
40592;BME280;26301;42.832;23.918;2023-02-28T09:04:44;93849.22;;;5.88;100.00
40592;BME280;26301;42.832;23.918;2023-02-28T09:07:11;93836.69;;;5.71;100.00
40592;BME280;26301;42.832;23.918;2023-02-28T09:09:37;93832.00;;;5.75;100.00
40592;BME280;26301;42.832;23.918;2023-02-28T09:12:03;93849.00;;;5.89;100.00
40592;BME280;26301;42.832;23.918;2023-02-28T09:14:28;93854.94;;;5.90;100.00
40592;BME280;26301;42.832;23.918;2023-02-28T09:16:54;93849.88;;;5.97;100.00
40592;BME280;26301;42.832;23.918;2023-02-28T09:19:20;93847.34;;;6.03;100.00
40592;BME280;26301;42.832;23.918;2023-02-28T09:21:46;93844.22;;;6.08;100.00
40592;BME280;26301;42.832;23.918;2023-02-28T09:24:11;93835.56;;;6.15;100.00
40592;BME280;26301;42.832;23.918;2023-02-28T09:26:39;93828.88;;;6.21;100.00
40592;BME280;26301;42.832;23.918;2023-02-28T09:29:05;93814.91;;;6.24;100.00
40592;BME280;26301;42.832;23.918;2023-02-28T09:31:32;93824.53;;;6.22;100.00
40592;BME280;26301;42.832;23.918;2023-02-28T09:33:58;93825.34;;;6.22;100.00
40592;BME280;26301;42.832;23.918;2023-02-28T09:36:25;93837.00;;;6.31;100.00
40592;BME280;26301;42.832;23.918;2023-02-28T09:38:51;93837.81;;;6.32;100.00
40592;BME280;26301;42.832;23.918;2023-02-28T09:41:36;93828.53;;;6.31;100.00
40592;BME280;26301;42.832;23.918;2023-02-28T09:44:07;93842.00;;;6.46;100.00
40592;BME280;26301;42.832;23.918;2023-02-28T09:46:44;93844.19;;;6.49;100.00
40592;BME280;26301;42.832;23.918;2023-02-28T09:49:24;93826.97;;;6.36;100.00
40592;BME280;26301;42.832;23.918;2023-02-28T09:52:00;93836.31;;;6.51;100.00
40592;BME280;26301;42.832;23.918;2023-02-28T09:54:32;93843.84;;;6.66;100.00
40592;BME280;26301;42.832;23.918;2023-02-28T09:59:54;93843.25;;;6.63;100.00
40592;BME280;26301;42.832;23.918;2023-02-28T10:02:38;93842.25;;;6.64;100.00
40592;BME280;26301;42.832;23.918;2023-02-28T10:05:14;93816.34;;;6.46;100.00
40592;BME280;26301;42.832;23.918;2023-02-28T10:08:05;93839.28;;;6.61;100.00
40592;BME280;26301;42.832;23.918;2023-02-28T10:10:49;93820.69;;;6.52;100.00
40592;BME280;26301;42.832;23.918;2023-02-28T10:16:45;93825.66;;;6.54;100.00
40592;BME280;26301;42.832;23.918;2023-02-28T10:22:11;93817.34;;;6.52;100.00
40592;BME280;26301;42.832;23.918;2023-02-28T10:24:46;93816.16;;;6.41;100.00
40592;BME280;26301;42.832;23.918;2023-02-28T10:27:23;93815.53;;;6.39;100.00
40592;BME280;26301;42.832;23.918;2023-02-28T10:29:53;93819.50;;;6.48;100.00
40592;BME280;26301;42.832;23.918;2023-02-28T10:32:29;93819.13;;;6.45;100.00
40592;BME280;26301;42.832;23.918;2023-02-28T10:35:20;93818.50;;;6.36;100.00
40592;BME280;26301;42.832;23.918;2023-02-28T10:37:48;93791.22;;;6.28;100.00
40592;BME280;26301;42.832;23.918;2023-02-28T10:45:20;93811.78;;;6.35;100.00
40592;BME280;26301;42.832;23.918;2023-02-28T10:47:50;93820.28;;;6.42;100.00
40592;BME280;26301;42.832;23.918;2023-02-28T10:50:33;93818.50;;;6.36;100.00
40592;BME280;26301;42.832;23.918;2023-02-28T10:56:14;93811.34;;;6.25;100.00
40592;BME280;26301;42.832;23.918;2023-02-28T10:59:08;93813.50;;;6.21;100.00
40592;BME280;26301;42.832;23.918;2023-02-28T11:01:47;93803.34;;;6.00;100.00
40592;BME280;26301;42.832;23.918;2023-02-28T11:28:02;93795.78;;;6.33;100.00
40592;BME280;26301;42.832;23.918;2023-02-28T11:30:39;93800.69;;;6.28;100.00
40592;BME280;26301;42.832;23.918;2023-02-28T11:35:48;93796.47;;;6.13;100.00
40592;BME280;26301;42.832;23.918;2023-02-28T11:38:14;93793.75;;;6.15;100.00
40592;BME280;26301;42.832;23.918;2023-02-28T11:41:00;93775.94;;;6.00;100.00
40592;BME280;26301;42.832;23.918;2023-02-28T11:43:49;93795.34;;;6.23;100.00
40592;BME280;26301;42.832;23.918;2023-02-28T11:52:00;93772.97;;;5.97;100.00
40592;BME280;26301;42.832;23.918;2023-02-28T11:57:36;93776.50;;;5.95;100.00
40592;BME280;26301;42.832;23.918;2023-02-28T12:00:25;93775.94;;;6.00;100.00
40592;BME280;26301;42.832;23.918;2023-02-28T12:05:45;93794.59;;;6.29;100.00
40592;BME280;26301;42.832;23.918;2023-02-28T12:08:31;93795.56;;;6.28;100.00
40592;BME280;26301;42.832;23.918;2023-02-28T12:11:11;93791.81;;;6.24;100.00
40592;BME280;26301;42.832;23.918;2023-02-28T12:27:34;93793.59;;;5.88;100.00
40592;BME280;26301;42.832;23.918;2023-02-28T12:30:24;93803.22;;;5.80;100.00
40592;BME280;26301;42.832;23.918;2023-02-28T12:33:03;93803.66;;;5.90;100.00
40592;BME280;26301;42.832;23.918;2023-02-28T12:35:44;93805.50;;;5.96;100.00
40592;BME280;26301;42.832;23.918;2023-02-28T12:38:20;93783.34;;;5.88;100.00
40592;BME280;26301;42.832;23.918;2023-02-28T12:41:14;93802.59;;;6.06;100.00
40592;BME280;26301;42.832;23.918;2023-02-28T12:43:50;93797.47;;;6.06;100.00
40592;BME280;26301;42.832;23.918;2023-02-28T12:46:36;93794.50;;;6.02;100.00
40592;BME280;26301;42.832;23.918;2023-02-28T12:49:08;93794.50;;;6.09;100.00
40592;BME280;26301;42.832;23.918;2023-02-28T12:51:36;93768.75;;;5.89;100.00
40592;BME280;26301;42.832;23.918;2023-02-28T12:59:46;93793.47;;;5.97;100.00
40592;BME280;26301;42.832;23.918;2023-02-28T13:08:03;93798.22;;;5.71;100.00
40592;BME280;26301;42.832;23.918;2023-02-28T13:10:49;93798.22;;;5.71;100.00
40592;BME280;26301;42.832;23.918;2023-02-28T13:13:23;93771.75;;;5.58;100.00
40592;BME280;26301;42.832;23.918;2023-02-28T13:16:05;93766.84;;;5.63;100.00
40592;BME280;26301;42.832;23.918;2023-02-28T13:18:34;93767.16;;;5.53;100.00
40592;BME280;26301;42.832;23.918;2023-02-28T13:21:03;93786.78;;;5.67;100.00
40592;BME280;26301;42.832;23.918;2023-02-28T13:26:09;93772.38;;;5.60;100.00
40592;BME280;26301;42.832;23.918;2023-02-28T13:28:58;93778.72;;;5.70;100.00
40592;BME280;26301;42.832;23.918;2023-02-28T13:31:23;93761.13;;;5.61;100.00
40592;BME280;26301;42.832;23.918;2023-02-28T13:36:26;93783.03;;;5.63;100.00
40592;BME280;26301;42.832;23.918;2023-02-28T13:39:02;93773.69;;;5.56;100.00
40592;BME280;26301;42.832;23.918;2023-02-28T13:41:41;93760.44;;;5.45;100.00
40592;BME280;26301;42.832;23.918;2023-02-28T13:44:08;93782.22;;;5.63;100.00
40592;BME280;26301;42.832;23.918;2023-02-28T13:51:49;93771.78;;;5.64;100.00
40592;BME280;26301;42.832;23.918;2023-02-28T14:02:50;93780.66;;;5.68;100.00
40592;BME280;26301;42.832;23.918;2023-02-28T14:05:21;93773.94;;;5.61;100.00
40592;BME280;26301;42.832;23.918;2023-02-28T14:07:54;93776.94;;;5.71;100.00
40592;BME280;26301;42.832;23.918;2023-02-28T14:10:28;93782.84;;;5.71;100.00
40592;BME280;26301;42.832;23.918;2023-02-28T14:13:11;93762.31;;;5.65;100.00
40592;BME280;26301;42.832;23.918;2023-02-28T14:18:15;93775.06;;;5.52;100.00
40592;BME280;26301;42.832;23.918;2023-02-28T14:20:43;93752.34;;;5.42;100.00
40592;BME280;26301;42.832;23.918;2023-02-28T14:23:36;93763.19;;;5.44;100.00
40592;BME280;26301;42.832;23.918;2023-02-28T14:31:43;93774.38;;;5.36;100.00
40592;BME280;26301;42.832;23.918;2023-02-28T14:37:04;93790.56;;;5.43;100.00
40592;BME280;26301;42.832;23.918;2023-02-28T14:39:31;93784.06;;;5.41;100.00
40592;BME280;26301;42.832;23.918;2023-02-28T14:41:58;93777.13;;;5.35;100.00
40592;BME280;26301;42.832;23.918;2023-02-28T14:44:30;93784.75;;;5.28;100.00
40592;BME280;26301;42.832;23.918;2023-02-28T14:47:01;93781.38;;;5.21;100.00
40592;BME280;26301;42.832;23.918;2023-02-28T14:49:50;93788.72;;;5.31;100.00
40592;BME280;26301;42.832;23.918;2023-02-28T14:52:21;93781.75;;;5.18;100.00
40592;BME280;26301;42.832;23.918;2023-02-28T14:54:53;93778.44;;;5.24;100.00
40592;BME280;26301;42.832;23.918;2023-02-28T14:57:39;93782.81;;;5.30;100.00
40592;BME280;26301;42.832;23.918;2023-02-28T15:00:13;93784.00;;;5.34;100.00
40592;BME280;26301;42.832;23.918;2023-02-28T15:02:40;93778.94;;;5.41;100.00
40592;BME280;26301;42.832;23.918;2023-02-28T15:05:33;93784.84;;;5.41;100.00
40592;BME280;26301;42.832;23.918;2023-02-28T15:08:16;93777.75;;;5.43;100.00
40592;BME280;26301;42.832;23.918;2023-02-28T15:10:50;93777.25;;;5.55;100.00
40592;BME280;26301;42.832;23.918;2023-02-28T15:13:16;93785.34;;;5.58;100.00
40592;BME280;26301;42.832;23.918;2023-02-28T15:15:58;93783.97;;;5.62;100.00
40592;BME280;26301;42.832;23.918;2023-02-28T15:21:18;93788.59;;;5.39;100.00
40592;BME280;26301;42.832;23.918;2023-02-28T15:23:49;93772.53;;;5.23;100.00
40592;BME280;26301;42.832;23.918;2023-02-28T15:26:19;93786.19;;;5.37;100.00
40592;BME280;26301;42.832;23.918;2023-02-28T15:28:46;93774.47;;;5.21;100.00
40592;BME280;26301;42.832;23.918;2023-02-28T15:31:29;93792.69;;;5.33;100.00
40592;BME280;26301;42.832;23.918;2023-02-28T15:34:03;93775.31;;;5.28;100.00
40592;BME280;26301;42.832;23.918;2023-02-28T15:36:30;93760.28;;;5.19;100.00
40592;BME280;26301;42.832;23.918;2023-02-28T15:38:59;93778.28;;;5.32;100.00
40592;BME280;26301;42.832;23.918;2023-02-28T15:41:36;93777.50;;;5.32;100.00